sensor_id;sensor_type;location;lat;lon;timestamp;temperature;humidity
38237;DHT22;50101;49.438;11.098;2023-04-03T00:00:45;19.00;58.10
38237;DHT22;50101;49.438;11.098;2023-04-03T00:03:12;19.00;58.20
38237;DHT22;50101;49.438;11.098;2023-04-03T00:05:39;19.00;58.10
38237;DHT22;50101;49.438;11.098;2023-04-03T00:08:05;19.00;58.20
38237;DHT22;50101;49.438;11.098;2023-04-03T00:10:34;19.00;58.20
38237;DHT22;50101;49.438;11.098;2023-04-03T00:13:03;19.00;58.20
38237;DHT22;50101;49.438;11.098;2023-04-03T00:15:30;19.00;58.10
38237;DHT22;50101;49.438;11.098;2023-04-03T00:17:57;19.00;58.10
38237;DHT22;50101;49.438;11.098;2023-04-03T00:20:24;19.00;58.10
38237;DHT22;50101;49.438;11.098;2023-04-03T00:22:51;18.90;58.10
38237;DHT22;50101;49.438;11.098;2023-04-03T00:25:18;19.00;58.10
38237;DHT22;50101;49.438;11.098;2023-04-03T00:27:45;19.00;58.10
38237;DHT22;50101;49.438;11.098;2023-04-03T00:30:14;18.90;58.00
38237;DHT22;50101;49.438;11.098;2023-04-03T00:32:41;18.90;58.00
38237;DHT22;50101;49.438;11.098;2023-04-03T00:35:08;18.90;58.00
38237;DHT22;50101;49.438;11.098;2023-04-03T00:37:36;18.90;58.00
38237;DHT22;50101;49.438;11.098;2023-04-03T00:40:03;18.90;58.00
38237;DHT22;50101;49.438;11.098;2023-04-03T00:42:30;18.90;58.00
38237;DHT22;50101;49.438;11.098;2023-04-03T00:47:23;18.90;58.00
38237;DHT22;50101;49.438;11.098;2023-04-03T00:49:51;18.90;58.00
38237;DHT22;50101;49.438;11.098;2023-04-03T00:52:23;18.90;58.00
38237;DHT22;50101;49.438;11.098;2023-04-03T00:54:54;18.90;58.00
38237;DHT22;50101;49.438;11.098;2023-04-03T00:57:23;18.90;58.00
38237;DHT22;50101;49.438;11.098;2023-04-03T00:59:54;18.90;58.10
38237;DHT22;50101;49.438;11.098;2023-04-03T01:02:21;18.90;58.00
38237;DHT22;50101;49.438;11.098;2023-04-03T01:04:48;18.90;58.00
38237;DHT22;50101;49.438;11.098;2023-04-03T01:07:18;18.90;58.00
38237;DHT22;50101;49.438;11.098;2023-04-03T01:09:47;18.90;58.10
38237;DHT22;50101;49.438;11.098;2023-04-03T01:12:24;18.90;58.10
38237;DHT22;50101;49.438;11.098;2023-04-03T01:14:53;18.90;57.50
38237;DHT22;50101;49.438;11.098;2023-04-03T01:17:40;18.90;58.00
38237;DHT22;50101;49.438;11.098;2023-04-03T01:25:45;18.90;58.00
38237;DHT22;50101;49.438;11.098;2023-04-03T01:28:23;18.90;58.00
38237;DHT22;50101;49.438;11.098;2023-04-03T01:33:29;18.80;57.90
38237;DHT22;50101;49.438;11.098;2023-04-03T01:35:56;18.90;57.90
38237;DHT22;50101;49.438;11.098;2023-04-03T01:38:23;18.80;57.80
38237;DHT22;50101;49.438;11.098;2023-04-03T01:40:50;18.80;57.90
38237;DHT22;50101;49.438;11.098;2023-04-03T01:43:17;18.90;57.90
38237;DHT22;50101;49.438;11.098;2023-04-03T01:45:43;18.80;57.80
38237;DHT22;50101;49.438;11.098;2023-04-03T01:48:10;18.80;57.80
38237;DHT22;50101;49.438;11.098;2023-04-03T01:50:37;18.80;57.80
38237;DHT22;50101;49.438;11.098;2023-04-03T01:53:04;18.90;57.90
38237;DHT22;50101;49.438;11.098;2023-04-03T01:55:31;18.80;57.80
38237;DHT22;50101;49.438;11.098;2023-04-03T01:57:57;18.80;57.80
38237;DHT22;50101;49.438;11.098;2023-04-03T02:00:24;18.80;57.80
38237;DHT22;50101;49.438;11.098;2023-04-03T02:02:51;18.80;57.80
38237;DHT22;50101;49.438;11.098;2023-04-03T02:05:17;18.80;57.70
38237;DHT22;50101;49.438;11.098;2023-04-03T02:07:44;18.80;57.70
38237;DHT22;50101;49.438;11.098;2023-04-03T02:10:13;18.80;57.70
38237;DHT22;50101;49.438;11.098;2023-04-03T02:12:40;18.80;57.70
38237;DHT22;50101;49.438;11.098;2023-04-03T02:15:07;18.80;57.70
38237;DHT22;50101;49.438;11.098;2023-04-03T02:17:35;18.80;57.70
38237;DHT22;50101;49.438;11.098;2023-04-03T02:20:03;18.80;57.70
38237;DHT22;50101;49.438;11.098;2023-04-03T02:22:29;18.80;58.30
38237;DHT22;50101;49.438;11.098;2023-04-03T02:24:56;18.80;57.70
38237;DHT22;50101;49.438;11.098;2023-04-03T02:27:23;18.80;57.70
38237;DHT22;50101;49.438;11.098;2023-04-03T02:29:49;18.80;57.60
38237;DHT22;50101;49.438;11.098;2023-04-03T02:32:16;18.80;57.70
38237;DHT22;50101;49.438;11.098;2023-04-03T02:34:43;18.80;57.60
38237;DHT22;50101;49.438;11.098;2023-04-03T02:37:09;18.80;57.60
38237;DHT22;50101;49.438;11.098;2023-04-03T02:39:36;18.70;57.60
38237;DHT22;50101;49.438;11.098;2023-04-03T02:42:03;18.80;57.60
38237;DHT22;50101;49.438;11.098;2023-04-03T02:44:29;18.70;57.50
38237;DHT22;50101;49.438;11.098;2023-04-03T02:46:56;18.70;57.50
38237;DHT22;50101;49.438;11.098;2023-04-03T02:49:23;18.70;57.60
38237;DHT22;50101;49.438;11.098;2023-04-03T02:51:49;18.70;57.50
38237;DHT22;50101;49.438;11.098;2023-04-03T02:54:17;18.70;57.50
38237;DHT22;50101;49.438;11.098;2023-04-03T02:56:44;18.80;57.60
38237;DHT22;50101;49.438;11.098;2023-04-03T02:59:10;18.70;57.50
38237;DHT22;50101;49.438;11.098;2023-04-03T03:01:37;18.70;57.50
38237;DHT22;50101;49.438;11.098;2023-04-03T03:04:04;18.70;57.50
38237;DHT22;50101;49.438;11.098;2023-04-03T03:06:30;18.70;57.50
38237;DHT22;50101;49.438;11.098;2023-04-03T03:08:57;18.70;57.50
38237;DHT22;50101;49.438;11.098;2023-04-03T03:11:24;18.70;57.50
38237;DHT22;50101;49.438;11.098;2023-04-03T03:13:51;18.70;57.50
38237;DHT22;50101;49.438;11.098;2023-04-03T03:16:18;18.70;57.50
38237;DHT22;50101;49.438;11.098;2023-04-03T03:18:45;18.70;57.40
38237;DHT22;50101;49.438;11.098;2023-04-03T03:21:11;18.70;57.50
38237;DHT22;50101;49.438;11.098;2023-04-03T03:23:38;18.70;57.40
38237;DHT22;50101;49.438;11.098;2023-04-03T03:26:08;18.70;57.30
38237;DHT22;50101;49.438;11.098;2023-04-03T03:28:36;18.70;57.40
38237;DHT22;50101;49.438;11.098;2023-04-03T03:31:04;18.70;57.30
38237;DHT22;50101;49.438;11.098;2023-04-03T03:33:31;18.60;57.20
38237;DHT22;50101;49.438;11.098;2023-04-03T03:35:58;18.70;56.80
38237;DHT22;50101;49.438;11.098;2023-04-03T03:38:25;18.60;57.20
38237;DHT22;50101;49.438;11.098;2023-04-03T03:40:52;18.70;57.30
38237;DHT22;50101;49.438;11.098;2023-04-03T03:43:19;18.60;57.10
38237;DHT22;50101;49.438;11.098;2023-04-03T03:45:50;18.60;57.10
38237;DHT22;50101;49.438;11.098;2023-04-03T03:48:18;18.60;57.10
38237;DHT22;50101;49.438;11.098;2023-04-03T03:50:45;18.60;57.10
38237;DHT22;50101;49.438;11.098;2023-04-03T03:53:12;18.60;57.10
38237;DHT22;50101;49.438;11.098;2023-04-03T03:55:38;18.60;57.10
38237;DHT22;50101;49.438;11.098;2023-04-03T03:58:05;18.60;57.10
38237;DHT22;50101;49.438;11.098;2023-04-03T04:00:32;18.60;57.00
38237;DHT22;50101;49.438;11.098;2023-04-03T04:02:59;18.60;57.00
38237;DHT22;50101;49.438;11.098;2023-04-03T04:05:28;18.60;57.00
38237;DHT22;50101;49.438;11.098;2023-04-03T04:07:55;18.60;56.50
38237;DHT22;50101;49.438;11.098;2023-04-03T04:10:22;18.60;57.00
38237;DHT22;50101;49.438;11.098;2023-04-03T04:12:48;18.60;56.90
38237;DHT22;50101;49.438;11.098;2023-04-03T04:15:17;18.60;57.00
38237;DHT22;50101;49.438;11.098;2023-04-03T04:17:44;18.60;57.00
38237;DHT22;50101;49.438;11.098;2023-04-03T04:20:11;18.60;57.00
38237;DHT22;50101;49.438;11.098;2023-04-03T04:22:38;18.60;57.00
38237;DHT22;50101;49.438;11.098;2023-04-03T04:25:05;18.60;56.90
38237;DHT22;50101;49.438;11.098;2023-04-03T04:27:32;18.60;56.90
38237;DHT22;50101;49.438;11.098;2023-04-03T04:29:59;18.60;56.90
38237;DHT22;50101;49.438;11.098;2023-04-03T04:32:26;18.60;56.90
38237;DHT22;50101;49.438;11.098;2023-04-03T04:34:52;18.60;56.90
38237;DHT22;50101;49.438;11.098;2023-04-03T04:37:19;18.60;56.90
38237;DHT22;50101;49.438;11.098;2023-04-03T04:39:46;18.60;56.90
38237;DHT22;50101;49.438;11.098;2023-04-03T04:42:12;18.60;56.90
38237;DHT22;50101;49.438;11.098;2023-04-03T04:44:42;18.60;56.80
38237;DHT22;50101;49.438;11.098;2023-04-03T04:47:08;18.50;56.80
38237;DHT22;50101;49.438;11.098;2023-04-03T04:49:35;18.60;56.80
38237;DHT22;50101;49.438;11.098;2023-04-03T04:52:02;18.60;56.80
38237;DHT22;50101;49.438;11.098;2023-04-03T04:54:29;18.60;56.70
38237;DHT22;50101;49.438;11.098;2023-04-03T04:56:55;18.60;56.70
38237;DHT22;50101;49.438;11.098;2023-04-03T04:59:22;18.60;56.60
38237;DHT22;50101;49.438;11.098;2023-04-03T05:01:49;18.60;56.60
38237;DHT22;50101;49.438;11.098;2023-04-03T05:04:16;18.60;56.60
38237;DHT22;50101;49.438;11.098;2023-04-03T05:06:43;18.60;56.60
38237;DHT22;50101;49.438;11.098;2023-04-03T05:09:09;18.60;56.60
38237;DHT22;50101;49.438;11.098;2023-04-03T05:11:36;18.60;56.50
38237;DHT22;50101;49.438;11.098;2023-04-03T05:14:03;18.70;56.50
38237;DHT22;50101;49.438;11.098;2023-04-03T05:16:33;18.60;56.50
38237;DHT22;50101;49.438;11.098;2023-04-03T05:19:00;18.60;56.40
38237;DHT22;50101;49.438;11.098;2023-04-03T05:21:26;18.70;56.40
38237;DHT22;50101;49.438;11.098;2023-04-03T05:23:55;18.70;56.40
38237;DHT22;50101;49.438;11.098;2023-04-03T05:26:22;18.70;56.40
38237;DHT22;50101;49.438;11.098;2023-04-03T05:28:49;18.70;56.30
38237;DHT22;50101;49.438;11.098;2023-04-03T05:31:15;18.70;56.20
38237;DHT22;50101;49.438;11.098;2023-04-03T05:33:42;18.70;56.20
38237;DHT22;50101;49.438;11.098;2023-04-03T05:36:09;18.70;56.10
38237;DHT22;50101;49.438;11.098;2023-04-03T05:38:36;18.70;56.10
38237;DHT22;50101;49.438;11.098;2023-04-03T05:41:03;18.80;56.20
38237;DHT22;50101;49.438;11.098;2023-04-03T05:43:29;19.10;56.40
38237;DHT22;50101;49.438;11.098;2023-04-03T05:45:56;18.80;56.10
38237;DHT22;50101;49.438;11.098;2023-04-03T05:48:23;18.00;48.60
38237;DHT22;50101;49.438;11.098;2023-04-03T05:50:49;15.80;45.00
38237;DHT22;50101;49.438;11.098;2023-04-03T05:53:21;14.60;45.20
38237;DHT22;50101;49.438;11.098;2023-04-03T05:55:48;13.90;45.40
38237;DHT22;50101;49.438;11.098;2023-04-03T05:58:14;13.60;45.70
38237;DHT22;50101;49.438;11.098;2023-04-03T06:00:41;14.90;47.70
38237;DHT22;50101;49.438;11.098;2023-04-03T06:03:08;16.00;48.50
38237;DHT22;50101;49.438;11.098;2023-04-03T06:05:34;16.70;48.90
38237;DHT22;50101;49.438;11.098;2023-04-03T06:08:02;17.30;49.20
38237;DHT22;50101;49.438;11.098;2023-04-03T06:10:29;17.50;49.00
38237;DHT22;50101;49.438;11.098;2023-04-03T06:12:56;17.80;49.10
38237;DHT22;50101;49.438;11.098;2023-04-03T06:15:25;18.10;49.20
38237;DHT22;50101;49.438;11.098;2023-04-03T06:17:52;18.10;49.70
38237;DHT22;50101;49.438;11.098;2023-04-03T06:20:19;18.20;50.20
38237;DHT22;50101;49.438;11.098;2023-04-03T06:22:46;18.30;50.10
38237;DHT22;50101;49.438;11.098;2023-04-03T06:25:12;18.40;50.40
38237;DHT22;50101;49.438;11.098;2023-04-03T06:27:39;18.50;50.50
38237;DHT22;50101;49.438;11.098;2023-04-03T06:30:07;18.60;50.40
38237;DHT22;50101;49.438;11.098;2023-04-03T06:32:33;18.60;50.60
38237;DHT22;50101;49.438;11.098;2023-04-03T06:35:00;18.70;51.00
38237;DHT22;50101;49.438;11.098;2023-04-03T06:37:27;18.70;50.90
38237;DHT22;50101;49.438;11.098;2023-04-03T06:39:55;18.80;51.20
38237;DHT22;50101;49.438;11.098;2023-04-03T06:42:22;18.90;51.40
38237;DHT22;50101;49.438;11.098;2023-04-03T06:44:49;18.90;51.50
38237;DHT22;50101;49.438;11.098;2023-04-03T06:47:16;19.00;51.10
38237;DHT22;50101;49.438;11.098;2023-04-03T06:49:44;19.00;51.80
38237;DHT22;50101;49.438;11.098;2023-04-03T06:52:11;19.10;52.20
38237;DHT22;50101;49.438;11.098;2023-04-03T06:54:41;19.20;51.90
38237;DHT22;50101;49.438;11.098;2023-04-03T06:57:08;19.20;52.40
38237;DHT22;50101;49.438;11.098;2023-04-03T06:59:35;19.20;52.40
38237;DHT22;50101;49.438;11.098;2023-04-03T07:02:03;19.30;52.60
38237;DHT22;50101;49.438;11.098;2023-04-03T07:04:29;19.30;52.80
38237;DHT22;50101;49.438;11.098;2023-04-03T07:06:57;19.30;53.00
38237;DHT22;50101;49.438;11.098;2023-04-03T07:09:23;19.40;53.10
38237;DHT22;50101;49.438;11.098;2023-04-03T07:11:51;19.40;53.10
38237;DHT22;50101;49.438;11.098;2023-04-03T07:14:17;19.40;53.10
38237;DHT22;50101;49.438;11.098;2023-04-03T07:16:44;19.40;53.20
38237;DHT22;50101;49.438;11.098;2023-04-03T07:19:11;19.50;53.40
38237;DHT22;50101;49.438;11.098;2023-04-03T07:21:38;19.50;53.60
38237;DHT22;50101;49.438;11.098;2023-04-03T07:24:05;19.50;53.70
38237;DHT22;50101;49.438;11.098;2023-04-03T07:26:32;19.50;53.70
38237;DHT22;50101;49.438;11.098;2023-04-03T07:28:59;19.60;53.80
38237;DHT22;50101;49.438;11.098;2023-04-03T07:31:26;19.60;54.00
38237;DHT22;50101;49.438;11.098;2023-04-03T07:33:53;19.60;54.00
38237;DHT22;50101;49.438;11.098;2023-04-03T07:36:21;19.60;54.10
38237;DHT22;50101;49.438;11.098;2023-04-03T07:38:48;19.60;53.90
38237;DHT22;50101;49.438;11.098;2023-04-03T07:41:18;19.70;53.90
38237;DHT22;50101;49.438;11.098;2023-04-03T07:43:45;19.70;54.00
38237;DHT22;50101;49.438;11.098;2023-04-03T07:46:12;19.80;54.10
38237;DHT22;50101;49.438;11.098;2023-04-03T07:48:39;19.90;54.30
38237;DHT22;50101;49.438;11.098;2023-04-03T07:51:06;19.90;54.20
38237;DHT22;50101;49.438;11.098;2023-04-03T07:53:33;19.90;54.20
38237;DHT22;50101;49.438;11.098;2023-04-03T07:56:00;20.00;54.40
38237;DHT22;50101;49.438;11.098;2023-04-03T07:58:29;20.00;54.40
38237;DHT22;50101;49.438;11.098;2023-04-03T08:00:56;20.00;54.30
38237;DHT22;50101;49.438;11.098;2023-04-03T08:03:23;20.10;54.40
38237;DHT22;50101;49.438;11.098;2023-04-03T08:05:50;20.10;54.40
38237;DHT22;50101;49.438;11.098;2023-04-03T08:08:19;20.10;54.50
38237;DHT22;50101;49.438;11.098;2023-04-03T08:10:53;20.10;54.50
38237;DHT22;50101;49.438;11.098;2023-04-03T08:13:21;20.10;54.50
38237;DHT22;50101;49.438;11.098;2023-04-03T08:15:48;20.20;54.50
38237;DHT22;50101;49.438;11.098;2023-04-03T08:18:15;20.20;54.60
38237;DHT22;50101;49.438;11.098;2023-04-03T08:20:42;20.20;54.50
38237;DHT22;50101;49.438;11.098;2023-04-03T08:23:10;20.20;54.60
38237;DHT22;50101;49.438;11.098;2023-04-03T08:25:40;20.30;54.60
38237;DHT22;50101;49.438;11.098;2023-04-03T08:28:08;20.30;54.60
38237;DHT22;50101;49.438;11.098;2023-04-03T08:30:35;20.30;54.60
38237;DHT22;50101;49.438;11.098;2023-04-03T08:33:03;20.30;54.70
38237;DHT22;50101;49.438;11.098;2023-04-03T08:35:30;20.30;54.70
38237;DHT22;50101;49.438;11.098;2023-04-03T08:37:57;20.30;54.70
38237;DHT22;50101;49.438;11.098;2023-04-03T08:40:24;20.30;54.80
38237;DHT22;50101;49.438;11.098;2023-04-03T08:48:31;20.40;55.20
38237;DHT22;50101;49.438;11.098;2023-04-03T08:51:03;20.40;55.10
38237;DHT22;50101;49.438;11.098;2023-04-03T08:53:40;20.40;55.20
38237;DHT22;50101;49.438;11.098;2023-04-03T08:56:09;20.40;55.30
38237;DHT22;50101;49.438;11.098;2023-04-03T08:58:52;20.40;55.20
38237;DHT22;50101;49.438;11.098;2023-04-03T09:01:39;20.50;55.50
38237;DHT22;50101;49.438;11.098;2023-04-03T09:04:16;20.50;55.40
38237;DHT22;50101;49.438;11.098;2023-04-03T09:06:48;20.50;55.40
38237;DHT22;50101;49.438;11.098;2023-04-03T09:22:43;20.60;55.60
38237;DHT22;50101;49.438;11.098;2023-04-03T09:25:23;19.70;45.10
38237;DHT22;50101;49.438;11.098;2023-04-03T09:27:52;18.40;41.80
38237;DHT22;50101;49.438;11.098;2023-04-03T09:30:22;18.30;43.70
38237;DHT22;50101;49.438;11.098;2023-04-03T09:32:55;18.80;48.80
38237;DHT22;50101;49.438;11.098;2023-04-03T09:35:29;19.40;48.50
38237;DHT22;50101;49.438;11.098;2023-04-03T09:40:51;20.00;48.50
38237;DHT22;50101;49.438;11.098;2023-04-03T09:43:32;20.10;48.70
38237;DHT22;50101;49.438;11.098;2023-04-03T09:48:56;20.30;49.60
38237;DHT22;50101;49.438;11.098;2023-04-03T09:51:34;20.40;49.90
38237;DHT22;50101;49.438;11.098;2023-04-03T09:54:25;20.40;50.10
38237;DHT22;50101;49.438;11.098;2023-04-03T09:57:03;20.40;50.40
38237;DHT22;50101;49.438;11.098;2023-04-03T09:59:31;20.50;50.70
38237;DHT22;50101;49.438;11.098;2023-04-03T10:02:22;20.50;50.90
38237;DHT22;50101;49.438;11.098;2023-04-03T10:04:49;20.50;51.30
38237;DHT22;50101;49.438;11.098;2023-04-03T10:07:37;20.60;51.50
38237;DHT22;50101;49.438;11.098;2023-04-03T10:10:22;20.60;51.70
38237;DHT22;50101;49.438;11.098;2023-04-03T10:13:17;20.60;52.00
38237;DHT22;50101;49.438;11.098;2023-04-03T10:15:51;20.60;52.10
38237;DHT22;50101;49.438;11.098;2023-04-03T10:18:39;20.70;52.30
38237;DHT22;50101;49.438;11.098;2023-04-03T10:30:21;20.70;52.60
38237;DHT22;50101;49.438;11.098;2023-04-03T10:33:31;20.70;52.80
38237;DHT22;50101;49.438;11.098;2023-04-03T10:36:17;20.60;53.60
38237;DHT22;50101;49.438;11.098;2023-04-03T10:39:08;20.70;53.00
38237;DHT22;50101;49.438;11.098;2023-04-03T10:53:12;20.80;53.60
38237;DHT22;50101;49.438;11.098;2023-04-03T10:58:24;20.90;53.70
38237;DHT22;50101;49.438;11.098;2023-04-03T11:00:54;20.90;53.80
38237;DHT22;50101;49.438;11.098;2023-04-03T11:03:36;20.90;54.00
38237;DHT22;50101;49.438;11.098;2023-04-03T11:06:12;20.90;53.50
38237;DHT22;50101;49.438;11.098;2023-04-03T11:09:07;20.90;53.90
38237;DHT22;50101;49.438;11.098;2023-04-03T11:11:39;21.00;54.10
38237;DHT22;50101;49.438;11.098;2023-04-03T11:14:20;21.00;54.10
38237;DHT22;50101;49.438;11.098;2023-04-03T11:22:29;21.00;54.20
38237;DHT22;50101;49.438;11.098;2023-04-03T11:25:17;21.10;54.40
38237;DHT22;50101;49.438;11.098;2023-04-03T11:28:05;21.10;54.50
38237;DHT22;50101;49.438;11.098;2023-04-03T11:30:49;21.10;54.50
38237;DHT22;50101;49.438;11.098;2023-04-03T11:33:21;21.10;54.60
38237;DHT22;50101;49.438;11.098;2023-04-03T11:35:52;21.10;54.80
38237;DHT22;50101;49.438;11.098;2023-04-03T11:38:27;21.10;54.80
38237;DHT22;50101;49.438;11.098;2023-04-03T11:40:56;21.10;54.90
38237;DHT22;50101;49.438;11.098;2023-04-03T11:43:29;21.10;55.70
38237;DHT22;50101;49.438;11.098;2023-04-03T11:46:03;21.10;55.10
38237;DHT22;50101;49.438;11.098;2023-04-03T11:50:59;21.10;54.90
38237;DHT22;50101;49.438;11.098;2023-04-03T11:53:36;21.10;54.90
38237;DHT22;50101;49.438;11.098;2023-04-03T12:01:56;21.00;55.20
38237;DHT22;50101;49.438;11.098;2023-04-03T12:04:27;21.10;55.30
38237;DHT22;50101;49.438;11.098;2023-04-03T12:07:22;21.10;54.90
38237;DHT22;50101;49.438;11.098;2023-04-03T12:12:31;21.20;55.40
38237;DHT22;50101;49.438;11.098;2023-04-03T12:15:20;21.20;55.50
38237;DHT22;50101;49.438;11.098;2023-04-03T12:17:47;21.20;55.70
38237;DHT22;50101;49.438;11.098;2023-04-03T12:28:37;21.20;55.90
38237;DHT22;50101;49.438;11.098;2023-04-03T12:31:08;21.20;55.90
38237;DHT22;50101;49.438;11.098;2023-04-03T12:34:14;21.20;55.90
38237;DHT22;50101;49.438;11.098;2023-04-03T12:36:48;21.20;55.70
38237;DHT22;50101;49.438;11.098;2023-04-03T12:39:42;21.10;55.80
38237;DHT22;50101;49.438;11.098;2023-04-03T12:42:26;21.10;56.00
38237;DHT22;50101;49.438;11.098;2023-04-03T12:45:24;21.20;56.10
38237;DHT22;50101;49.438;11.098;2023-04-03T12:47:55;21.20;56.10
38237;DHT22;50101;49.438;11.098;2023-04-03T12:50:26;21.20;56.10
38237;DHT22;50101;49.438;11.098;2023-04-03T12:52:57;21.30;56.30
38237;DHT22;50101;49.438;11.098;2023-04-03T12:55:26;21.30;56.00
38237;DHT22;50101;49.438;11.098;2023-04-03T12:57:52;21.30;56.50
38237;DHT22;50101;49.438;11.098;2023-04-03T13:00:35;21.30;56.50
38237;DHT22;50101;49.438;11.098;2023-04-03T13:03:06;21.30;56.50
38237;DHT22;50101;49.438;11.098;2023-04-03T13:05:44;21.30;56.10
38237;DHT22;50101;49.438;11.098;2023-04-03T13:08:13;21.30;56.70
38237;DHT22;50101;49.438;11.098;2023-04-03T13:10:59;21.30;56.90
38237;DHT22;50101;49.438;11.098;2023-04-03T13:13:28;21.30;57.00
38237;DHT22;50101;49.438;11.098;2023-04-03T13:15:55;21.30;57.00
38237;DHT22;50101;49.438;11.098;2023-04-03T13:18:29;21.30;57.10
38237;DHT22;50101;49.438;11.098;2023-04-03T13:21:06;21.30;57.10
38237;DHT22;50101;49.438;11.098;2023-04-03T13:23:36;21.30;57.20
38237;DHT22;50101;49.438;11.098;2023-04-03T13:26:06;21.30;57.30
38237;DHT22;50101;49.438;11.098;2023-04-03T13:28:33;21.30;57.40
38237;DHT22;50101;49.438;11.098;2023-04-03T13:33:30;21.30;57.40
38237;DHT22;50101;49.438;11.098;2023-04-03T13:36:17;21.30;57.50
38237;DHT22;50101;49.438;11.098;2023-04-03T13:38:45;21.30;57.50
38237;DHT22;50101;49.438;11.098;2023-04-03T13:41:45;21.30;57.50
38237;DHT22;50101;49.438;11.098;2023-04-03T13:46:56;21.30;57.70
38237;DHT22;50101;49.438;11.098;2023-04-03T13:49:36;21.30;57.70
38237;DHT22;50101;49.438;11.098;2023-04-03T13:54:53;21.30;57.80
38237;DHT22;50101;49.438;11.098;2023-04-03T13:57:20;21.30;57.80
38237;DHT22;50101;49.438;11.098;2023-04-03T13:59:47;21.40;57.90
38237;DHT22;50101;49.438;11.098;2023-04-03T14:02:34;21.40;57.90
38237;DHT22;50101;49.438;11.098;2023-04-03T14:05:02;21.40;58.00
38237;DHT22;50101;49.438;11.098;2023-04-03T14:07:30;21.40;58.00
38237;DHT22;50101;49.438;11.098;2023-04-03T14:09:57;21.40;58.00
38237;DHT22;50101;49.438;11.098;2023-04-03T14:12:30;21.50;58.10
38237;DHT22;50101;49.438;11.098;2023-04-03T14:15:00;21.40;58.60
38237;DHT22;50101;49.438;11.098;2023-04-03T14:17:28;21.40;58.00
38237;DHT22;50101;49.438;11.098;2023-04-03T14:19:55;21.40;58.20
38237;DHT22;50101;49.438;11.098;2023-04-03T14:22:29;21.40;58.10
38237;DHT22;50101;49.438;11.098;2023-04-03T14:24:56;21.40;57.70
38237;DHT22;50101;49.438;11.098;2023-04-03T14:27:41;22.90;59.40
38237;DHT22;50101;49.438;11.098;2023-04-03T14:30:29;21.50;58.10
38237;DHT22;50101;49.438;11.098;2023-04-03T14:32:58;21.50;58.10
38237;DHT22;50101;49.438;11.098;2023-04-03T14:35:26;21.50;58.20
38237;DHT22;50101;49.438;11.098;2023-04-03T14:37:54;21.50;58.40
38237;DHT22;50101;49.438;11.098;2023-04-03T14:40:24;21.50;58.40
38237;DHT22;50101;49.438;11.098;2023-04-03T14:42:52;21.50;58.40
38237;DHT22;50101;49.438;11.098;2023-04-03T14:45:22;21.50;58.10
38237;DHT22;50101;49.438;11.098;2023-04-03T14:47:51;21.50;58.60
38237;DHT22;50101;49.438;11.098;2023-04-03T14:50:24;21.30;58.20
38237;DHT22;50101;49.438;11.098;2023-04-03T14:52:54;21.20;58.30
38237;DHT22;50101;49.438;11.098;2023-04-03T14:55:23;21.00;58.00
38237;DHT22;50101;49.438;11.098;2023-04-03T14:57:51;21.00;57.60
38237;DHT22;50101;49.438;11.098;2023-04-03T15:00:21;21.00;57.50
38237;DHT22;50101;49.438;11.098;2023-04-03T15:02:48;21.00;57.30
38237;DHT22;50101;49.438;11.098;2023-04-03T15:05:15;21.00;57.50
38237;DHT22;50101;49.438;11.098;2023-04-03T15:07:53;21.00;56.40
38237;DHT22;50101;49.438;11.098;2023-04-03T15:10:26;21.10;57.10
38237;DHT22;50101;49.438;11.098;2023-04-03T15:12:53;21.30;56.80
38237;DHT22;50101;49.438;11.098;2023-04-03T15:15:21;21.40;56.70
38237;DHT22;50101;49.438;11.098;2023-04-03T15:17:52;21.50;56.60
38237;DHT22;50101;49.438;11.098;2023-04-03T15:20:23;21.50;56.60
38237;DHT22;50101;49.438;11.098;2023-04-03T15:22:50;21.60;56.70
38237;DHT22;50101;49.438;11.098;2023-04-03T15:25:17;21.70;56.80
38237;DHT22;50101;49.438;11.098;2023-04-03T15:27:44;21.60;56.80
38237;DHT22;50101;49.438;11.098;2023-04-03T15:30:16;21.70;57.00
38237;DHT22;50101;49.438;11.098;2023-04-03T15:32:43;21.70;56.80
38237;DHT22;50101;49.438;11.098;2023-04-03T15:35:10;21.40;56.40
38237;DHT22;50101;49.438;11.098;2023-04-03T15:37:37;21.30;56.80
38237;DHT22;50101;49.438;11.098;2023-04-03T15:40:05;21.30;57.20
38237;DHT22;50101;49.438;11.098;2023-04-03T15:42:32;21.20;57.10
38237;DHT22;50101;49.438;11.098;2023-04-03T15:44:59;21.30;57.00
38237;DHT22;50101;49.438;11.098;2023-04-03T15:47:26;21.50;55.90
38237;DHT22;50101;49.438;11.098;2023-04-03T15:49:53;21.50;56.20
38237;DHT22;50101;49.438;11.098;2023-04-03T15:52:21;21.50;56.10
38237;DHT22;50101;49.438;11.098;2023-04-03T15:54:48;21.50;55.40
38237;DHT22;50101;49.438;11.098;2023-04-03T15:57:15;21.50;55.90
38237;DHT22;50101;49.438;11.098;2023-04-03T15:59:42;21.50;55.90
38237;DHT22;50101;49.438;11.098;2023-04-03T16:02:09;21.50;55.90
38237;DHT22;50101;49.438;11.098;2023-04-03T16:04:36;21.50;55.90
38237;DHT22;50101;49.438;11.098;2023-04-03T16:07:04;21.50;55.40
38237;DHT22;50101;49.438;11.098;2023-04-03T16:09:32;21.50;55.90
38237;DHT22;50101;49.438;11.098;2023-04-03T16:11:59;21.50;55.90
38237;DHT22;50101;49.438;11.098;2023-04-03T16:14:26;21.50;55.90
38237;DHT22;50101;49.438;11.098;2023-04-03T16:16:55;21.60;55.90
38237;DHT22;50101;49.438;11.098;2023-04-03T16:19:21;21.50;55.80
38237;DHT22;50101;49.438;11.098;2023-04-03T16:21:53;21.60;55.80
38237;DHT22;50101;49.438;11.098;2023-04-03T16:24:20;21.60;55.80
38237;DHT22;50101;49.438;11.098;2023-04-03T16:26:47;21.60;55.80
38237;DHT22;50101;49.438;11.098;2023-04-03T16:29:14;21.50;55.70
38237;DHT22;50101;49.438;11.098;2023-04-03T16:31:41;21.60;55.80
38237;DHT22;50101;49.438;11.098;2023-04-03T16:34:08;21.60;55.70
38237;DHT22;50101;49.438;11.098;2023-04-03T16:36:34;21.60;55.70
38237;DHT22;50101;49.438;11.098;2023-04-03T16:39:01;21.60;55.70
38237;DHT22;50101;49.438;11.098;2023-04-03T16:41:28;21.60;55.70
38237;DHT22;50101;49.438;11.098;2023-04-03T16:43:54;21.60;55.70
38237;DHT22;50101;49.438;11.098;2023-04-03T16:46:21;21.60;55.60
38237;DHT22;50101;49.438;11.098;2023-04-03T16:48:48;21.60;55.60
38237;DHT22;50101;49.438;11.098;2023-04-03T16:51:15;21.60;55.50
38237;DHT22;50101;49.438;11.098;2023-04-03T16:53:42;21.60;55.60
38237;DHT22;50101;49.438;11.098;2023-04-03T16:56:09;21.60;55.60
38237;DHT22;50101;49.438;11.098;2023-04-03T16:58:36;21.50;55.60
38237;DHT22;50101;49.438;11.098;2023-04-03T17:01:14;21.50;55.60
38237;DHT22;50101;49.438;11.098;2023-04-03T17:03:41;21.50;55.70